EmailTwitter


Observations de surface / Québec / CYSC

Régions: Québec | Canada | États-Unis | Europe | France | UK | Ailleurs
Station
Affichage
Infos & localisation pour CYSC | Aide pour décoder les METARs

Observations prises le 2018-04-26 à 09H00 UTC à SHERBROOKE, QB (CYSC)

Etat du ciel: couvert.

Température: 8.0 Celsius

Point de rosée: 8.0 Celsius

Humidité relative: 100%

Vents: Nord-est à 4 km/h ou 2 noeuds.

Pression au niveau moyen de la mer: 100.19 kilopascals.

Calage altimétrique: 100.13 kilopascals ou 29.57 pouces de mercure.

Visibilité horizontale: 9.00 milles terrestres ou 14.40 kilomètres.

Hauteur du plafond: 671 mètres ( 2200 pieds ).

Observation METAR:

CYSC 260900Z AUTO 03002KT 9SM OVC022 08/08 A2957 RMK SLP019=